Regional Weather

 

KCRX - Corinth, Mississippi, USA
Distance from station: SW 29mi, 47km
Updated: Thu, 25-Feb-2021 3:55am CST
Clear
Clear
 Wind from N
Wind: N 7 mph , 11 km/h
Temperature: 50°F , 10°C
Wind Chill: 47°F , 8°C
Dew Point: 39°F , 4°C
Humidity: 67%
Barometer: 30.17 inHg , 1021.7 hPa
Clouds: Clear
Visibility: 10 miles , 16 km
2021/02/25 09:55 KCRX 250955Z AUTO 36006KT 10SM CLR 10/04 A3017 RMK AO2
KMKL - Jackson, Tennessee, USA
Distance from station: NW 46mi, 73km
Updated: Thu, 25-Feb-2021 3:53am CST
Overcast
Overcast
 Wind from NNE
Wind: NNE 16 mph , 26 km/h
Temperature: 46°F , 8°C
Wind Chill: 39°F , 4°C
Dew Point: 36°F , 2°C
Humidity: 66%
Barometer: 30.24 inHg , 1024 hPa
Clouds: Overcast
Visibility: 10 miles , 16 km
Cloud details: Few Clouds 6500 ft
Mostly cloudy 8500 ft
Overcast 11000 ft
2021/02/25 09:53 KMKL 250953Z AUTO 03014KT 10SM FEW065 BKN085 OVC110 08/02 A3024 RMK AO2 SLP238 T00830022
 
KMSL - Muscle Shoal, Alabama, USA
Distance from station: SE 49mi, 79km
Updated: Thu, 25-Feb-2021 3:53am CST
Clear
Clear
 Wind from NNE
Wind: NNE 10 mph , 17 km/h
Temperature: 55°F , 13°C
Dew Point: 41°F , 5°C
Humidity: 59%
Barometer: 30.15 inHg , 1021 hPa
Clouds: Clear
Visibility: 10 miles , 16 km
2021/02/25 09:53 KMSL 250953Z AUTO 02009KT 10SM CLR 13/05 A3015 RMK AO2 SLP206 T01280050
KTUP - Tupelo, Mississippi, USA
Distance from station: SSW 72mi, 117km
Updated: Thu, 25-Feb-2021 3:53am CST
Mostly cloudy
Mostly cloudy
 Wind from NNE
Wind: NNE 10 mph , 17 km/h
Temperature: 52°F , 11°C
Dew Point: 45°F , 7°C
Humidity: 77%
Barometer: 30.15 inHg , 1021 hPa
Clouds: Mostly cloudy
Visibility: 10 miles , 16 km
Cloud details: Mostly cloudy 9000 ft
2021/02/25 09:53 KTUP 250953Z AUTO 02009KT 10SM BKN090 11/07 A3015 RMK AO2 SLP207 T01110072 $
 
KHSV - Huntsville, Alabama, USA
Distance from station: ESE 92mi, 148km
Updated: Thu, 25-Feb-2021 3:53am CST
Clear
Clear
 Wind from N
Wind: N 7 mph , 11 km/h
Temperature: 54°F , 12°C
Dew Point: 43°F , 6°C
Humidity: 67%
Barometer: 30.14 inHg , 1020.7 hPa
Clouds: Clear
Visibility: 10 miles , 16 km
2021/02/25 09:53 KHSV 250953Z AUTO 36006KT 10SM CLR 12/06 A3014 RMK AO2 SLP201 T01170061
KBNA - Nashville, TN, USA
Distance from station: NE 97mi, 157km
Updated: Thu, 25-Feb-2021 3:53am CST
Few Clouds
Few Clouds
 Wind from N
Wind: N 10 mph , 17 km/h
Temperature: 46°F , 8°C
Wind Chill: 41°F , 5°C
Dew Point: 36°F , 2°C
Humidity: 66%
Barometer: 30.21 inHg , 1023 hPa
Clouds: Few Clouds
Visibility: 10 miles , 16 km
Cloud details: Few Clouds 6500 ft
2021/02/25 09:53 KBNA 250953Z 35009KT 10SM FEW065 08/02 A3021 RMK AO2 SLP228 T00830017
 
KMEM - Memphis, Tennessee, USA
Distance from station: W 99mi, 159km
Updated: Thu, 25-Feb-2021 3:54am CST
Mostly cloudy
Mostly cloudy
 Wind from NE
Wind: NE 15 mph , 24 km/h, Gust: 28 mph , 44 km/h
Temperature: 52°F , 11°C
Dew Point: 37°F , 3°C
Humidity: 58%
Barometer: 30.22 inHg , 1023.4 hPa
Clouds: Mostly cloudy
Visibility: 10 miles , 16 km
Cloud details: Mostly cloudy 4800 ft
2021/02/25 09:54 KMEM 250954Z 04013G24KT 10SM BKN048 11/03 A3022 RMK AO2 SLP232 T01060028 $
KCKV - Clarksville, TN, USA
Distance from station: NNE 99mi, 159km
Updated: Thu, 25-Feb-2021 3:52am CST
Clear
Clear
 Wind from NNW
Wind: NNW 12 mph , 19 km/h
Temperature: 37°F , 3°C
Wind Chill: 29°F , -2°C
Dew Point: 34°F , 1°C
Humidity: 87%
Barometer: 30.24 inHg , 1024 hPa
Clouds: Clear
Visibility: 7 miles , 11 km
2021/02/25 09:52 KCKV 250952Z AUTO 34010KT 7SM CLR 03/01 A3024 RMK AO2 SLP241 T00280006
 
KCHA - Chattanooga, TN, USA
Distance from station: E 165mi, 265km
Updated: Thu, 25-Feb-2021 3:53am CST
Overcast
Overcast
 Wind from NNW
Wind: NNW 8 mph , 13 km/h
Temperature: 54°F , 12°C
Dew Point: 39°F , 4°C
Humidity: 58%
Barometer: 30.11 inHg , 1019.6 hPa
Clouds: Overcast
Visibility: 10 miles , 16 km
Cloud details: Overcast 6000 ft
2021/02/25 09:53 KCHA 250953Z 33007KT 10SM OVC060 12/04 A3011 RMK AO2 SLP190 T01220039
KTYS - Knoxville, TN, USA
Distance from station: E 234mi, 377km
Updated: Thu, 25-Feb-2021 3:53am CST
Overcast
Overcast
 Wind from N
Wind: N 10 mph , 17 km/h
Temperature: 54°F , 12°C
Dew Point: 43°F , 6°C
Humidity: 67%
Barometer: 30.09 inHg , 1019 hPa
Clouds: Overcast
Visibility: 10 miles , 16 km
Cloud details: Overcast 7000 ft
2021/02/25 09:53 KTYS 250953Z 36009KT 10SM OVC070 12/06 A3009 RMK AO2 SLP183 T01220061 $

Refresh Page for latest data.